OIYY

Shahid Sadooghi Airport

Airport
ICAO code
OIYY
IATA Code
AZD
Summary
ICAO Region
MID
ICAO Territory
Location

Yazd, Yazd Province

Serving
Yazd
Elevation
4054 ft
Coordinates
31° 54' 5" N , 54° 17' 8" E
KCC
Metar
Observation
OIYY 041400Z 29006KT CAVOK 13/M01 Q1022 NOSIG
Station
Yazd
Date/Time
2022-12-04 14:00:00
Wind direction
290°
Wind speed
06 kts
Lowest cloud amount
clouds and visibility OK
Temperature
13°C
Dew point
-1°C
Humidity
37%
QNH
1022 hPa
Weather condition
n/a

Airport located 8km west of the city of Yazd, Iran.

Climatology

Warm Desert climate (Köppen climate classification BWh). Very hot summers and cold winter nights; very little precipitation.

Runways

Designator Length Width Surface Rops
13/31 4098 45 ASP No/No

Airport map

Aerial View

SKYbrary Partners:

Safety knowledge contributed by: